sensor_id;sensor_type;location;lat;lon;timestamp;temperature;humidity
69418;DHT22;56610;48.872;2.400;2022-07-01T00:00:00;18.50;99.90
69418;DHT22;56610;48.872;2.400;2022-07-01T00:02:26;18.50;99.90
69418;DHT22;56610;48.872;2.400;2022-07-01T00:04:51;18.50;99.90
69418;DHT22;56610;48.872;2.400;2022-07-01T00:07:17;18.50;99.90
69418;DHT22;56610;48.872;2.400;2022-07-01T00:09:43;18.60;99.90
69418;DHT22;56610;48.872;2.400;2022-07-01T00:12:08;18.50;99.90
69418;DHT22;56610;48.872;2.400;2022-07-01T00:14:34;18.60;99.90
69418;DHT22;56610;48.872;2.400;2022-07-01T00:17:00;18.50;99.90
69418;DHT22;56610;48.872;2.400;2022-07-01T00:19:25;18.30;99.90
69418;DHT22;56610;48.872;2.400;2022-07-01T00:21:51;18.20;99.90
69418;DHT22;56610;48.872;2.400;2022-07-01T00:24:17;18.20;99.90
69418;DHT22;56610;48.872;2.400;2022-07-01T00:26:42;18.20;99.90
69418;DHT22;56610;48.872;2.400;2022-07-01T00:29:08;18.20;99.90
69418;DHT22;56610;48.872;2.400;2022-07-01T00:31:33;18.20;99.90
69418;DHT22;56610;48.872;2.400;2022-07-01T00:33:59;18.20;99.90
69418;DHT22;56610;48.872;2.400;2022-07-01T00:36:24;18.30;99.90
69418;DHT22;56610;48.872;2.400;2022-07-01T00:38:50;18.50;99.90
69418;DHT22;56610;48.872;2.400;2022-07-01T00:41:15;18.50;99.90
69418;DHT22;56610;48.872;2.400;2022-07-01T00:43:41;18.60;99.90
69418;DHT22;56610;48.872;2.400;2022-07-01T00:46:07;18.50;99.90
69418;DHT22;56610;48.872;2.400;2022-07-01T00:48:32;18.70;99.90
69418;DHT22;56610;48.872;2.400;2022-07-01T00:50:59;18.60;99.90
69418;DHT22;56610;48.872;2.400;2022-07-01T00:53:25;18.50;99.90
69418;DHT22;56610;48.872;2.400;2022-07-01T00:55:50;18.30;99.90
69418;DHT22;56610;48.872;2.400;2022-07-01T00:58:16;18.20;99.90
69418;DHT22;56610;48.872;2.400;2022-07-01T01:00:42;18.20;99.90
69418;DHT22;56610;48.872;2.400;2022-07-01T01:03:07;18.20;99.90
69418;DHT22;56610;48.872;2.400;2022-07-01T01:05:36;18.10;99.90
69418;DHT22;56610;48.872;2.400;2022-07-01T01:08:01;18.10;99.90
69418;DHT22;56610;48.872;2.400;2022-07-01T01:10:27;18.20;99.90
69418;DHT22;56610;48.872;2.400;2022-07-01T01:12:54;18.30;99.90
69418;DHT22;56610;48.872;2.400;2022-07-01T01:15:19;18.30;99.90
69418;DHT22;56610;48.872;2.400;2022-07-01T01:17:45;18.20;99.90
69418;DHT22;56610;48.872;2.400;2022-07-01T01:20:21;18.20;99.90
69418;DHT22;56610;48.872;2.400;2022-07-01T01:22:47;18.20;99.90
69418;DHT22;56610;48.872;2.400;2022-07-01T01:25:14;18.10;99.90
69418;DHT22;56610;48.872;2.400;2022-07-01T01:27:39;18.10;99.90
69418;DHT22;56610;48.872;2.400;2022-07-01T01:30:05;18.00;99.90
69418;DHT22;56610;48.872;2.400;2022-07-01T01:32:31;18.00;99.90
69418;DHT22;56610;48.872;2.400;2022-07-01T01:34:57;18.10;99.90
69418;DHT22;56610;48.872;2.400;2022-07-01T01:37:22;18.10;99.90
69418;DHT22;56610;48.872;2.400;2022-07-01T01:39:48;18.00;99.90
69418;DHT22;56610;48.872;2.400;2022-07-01T01:42:13;17.90;99.90
69418;DHT22;56610;48.872;2.400;2022-07-01T01:44:39;18.00;99.90
69418;DHT22;56610;48.872;2.400;2022-07-01T01:47:04;18.10;99.90
69418;DHT22;56610;48.872;2.400;2022-07-01T01:49:30;18.00;99.90
69418;DHT22;56610;48.872;2.400;2022-07-01T01:51:56;18.00;99.90
69418;DHT22;56610;48.872;2.400;2022-07-01T01:54:23;18.00;99.90
69418;DHT22;56610;48.872;2.400;2022-07-01T01:56:48;17.90;99.90
69418;DHT22;56610;48.872;2.400;2022-07-01T01:59:14;18.00;99.90
69418;DHT22;56610;48.872;2.400;2022-07-01T02:01:39;18.00;99.90
69418;DHT22;56610;48.872;2.400;2022-07-01T02:04:05;18.10;99.90
69418;DHT22;56610;48.872;2.400;2022-07-01T02:06:30;18.20;99.90
69418;DHT22;56610;48.872;2.400;2022-07-01T02:08:56;18.20;99.90
69418;DHT22;56610;48.872;2.400;2022-07-01T02:11:22;18.20;99.90
69418;DHT22;56610;48.872;2.400;2022-07-01T02:13:47;18.10;99.90
69418;DHT22;56610;48.872;2.400;2022-07-01T02:16:13;18.00;99.90
69418;DHT22;56610;48.872;2.400;2022-07-01T02:18:38;18.00;99.90
69418;DHT22;56610;48.872;2.400;2022-07-01T02:21:04;17.90;99.90
69418;DHT22;56610;48.872;2.400;2022-07-01T02:23:29;17.80;99.90
69418;DHT22;56610;48.872;2.400;2022-07-01T02:25:55;17.80;99.90
69418;DHT22;56610;48.872;2.400;2022-07-01T02:28:21;17.80;99.90
69418;DHT22;56610;48.872;2.400;2022-07-01T02:30:46;17.80;99.90
69418;DHT22;56610;48.872;2.400;2022-07-01T02:33:12;17.70;99.90
69418;DHT22;56610;48.872;2.400;2022-07-01T02:35:38;17.80;99.90
69418;DHT22;56610;48.872;2.400;2022-07-01T02:38:05;17.80;99.90
69418;DHT22;56610;48.872;2.400;2022-07-01T02:40:30;17.80;99.90
69418;DHT22;56610;48.872;2.400;2022-07-01T02:42:56;18.00;99.90
69418;DHT22;56610;48.872;2.400;2022-07-01T02:45:22;18.10;99.90
69418;DHT22;56610;48.872;2.400;2022-07-01T02:47:47;18.20;99.90
69418;DHT22;56610;48.872;2.400;2022-07-01T02:50:13;18.30;99.90
69418;DHT22;56610;48.872;2.400;2022-07-01T02:52:40;18.20;99.90
69418;DHT22;56610;48.872;2.400;2022-07-01T02:55:07;18.00;99.90
69418;DHT22;56610;48.872;2.400;2022-07-01T02:57:32;18.00;99.90
69418;DHT22;56610;48.872;2.400;2022-07-01T02:59:58;18.00;99.90
69418;DHT22;56610;48.872;2.400;2022-07-01T03:02:24;17.90;99.90
69418;DHT22;56610;48.872;2.400;2022-07-01T03:04:50;17.80;99.90
69418;DHT22;56610;48.872;2.400;2022-07-01T03:07:16;17.80;99.90
69418;DHT22;56610;48.872;2.400;2022-07-01T03:09:42;17.70;99.90
69418;DHT22;56610;48.872;2.400;2022-07-01T03:12:09;17.60;99.90
69418;DHT22;56610;48.872;2.400;2022-07-01T03:14:50;17.70;99.90
69418;DHT22;56610;48.872;2.400;2022-07-01T03:17:16;17.60;99.90
69418;DHT22;56610;48.872;2.400;2022-07-01T03:19:42;17.60;99.90
69418;DHT22;56610;48.872;2.400;2022-07-01T03:24:53;17.50;99.90
69418;DHT22;56610;48.872;2.400;2022-07-01T03:27:19;17.40;99.90
69418;DHT22;56610;48.872;2.400;2022-07-01T03:29:45;17.40;99.90
69418;DHT22;56610;48.872;2.400;2022-07-01T03:32:11;17.40;99.90
69418;DHT22;56610;48.872;2.400;2022-07-01T03:34:37;17.30;99.90
69418;DHT22;56610;48.872;2.400;2022-07-01T03:37:03;17.30;99.90
69418;DHT22;56610;48.872;2.400;2022-07-01T03:39:28;17.30;99.90
69418;DHT22;56610;48.872;2.400;2022-07-01T03:41:54;17.40;99.90
69418;DHT22;56610;48.872;2.400;2022-07-01T03:44:19;17.40;99.90
69418;DHT22;56610;48.872;2.400;2022-07-01T03:46:45;17.40;99.90
69418;DHT22;56610;48.872;2.400;2022-07-01T03:49:10;17.40;99.90
69418;DHT22;56610;48.872;2.400;2022-07-01T03:51:36;17.40;99.90
69418;DHT22;56610;48.872;2.400;2022-07-01T03:54:02;17.30;99.90
69418;DHT22;56610;48.872;2.400;2022-07-01T03:56:46;17.30;99.90
69418;DHT22;56610;48.872;2.400;2022-07-01T03:59:11;17.20;99.90
69418;DHT22;56610;48.872;2.400;2022-07-01T04:01:37;17.20;99.90
69418;DHT22;56610;48.872;2.400;2022-07-01T04:04:02;17.20;99.90
69418;DHT22;56610;48.872;2.400;2022-07-01T04:06:28;17.20;99.90
69418;DHT22;56610;48.872;2.400;2022-07-01T04:08:53;17.10;99.90
69418;DHT22;56610;48.872;2.400;2022-07-01T04:11:19;17.20;99.90
69418;DHT22;56610;48.872;2.400;2022-07-01T04:13:44;17.10;99.90
69418;DHT22;56610;48.872;2.400;2022-07-01T04:16:18;17.10;99.90
69418;DHT22;56610;48.872;2.400;2022-07-01T04:18:44;17.10;99.90
69418;DHT22;56610;48.872;2.400;2022-07-01T04:21:09;17.00;99.90
69418;DHT22;56610;48.872;2.400;2022-07-01T04:23:53;16.90;99.90
69418;DHT22;56610;48.872;2.400;2022-07-01T04:26:20;16.90;99.90
69418;DHT22;56610;48.872;2.400;2022-07-01T04:28:45;16.90;99.90
69418;DHT22;56610;48.872;2.400;2022-07-01T04:31:11;16.90;99.90
69418;DHT22;56610;48.872;2.400;2022-07-01T04:33:36;16.90;99.90
69418;DHT22;56610;48.872;2.400;2022-07-01T04:36:02;16.80;99.90
69418;DHT22;56610;48.872;2.400;2022-07-01T04:38:28;16.80;99.90
69418;DHT22;56610;48.872;2.400;2022-07-01T04:40:53;16.80;99.90
69418;DHT22;56610;48.872;2.400;2022-07-01T04:43:38;16.80;99.90
69418;DHT22;56610;48.872;2.400;2022-07-01T04:46:03;16.80;99.90
69418;DHT22;56610;48.872;2.400;2022-07-01T04:48:28;16.70;99.90
69418;DHT22;56610;48.872;2.400;2022-07-01T04:50:54;16.70;99.90
69418;DHT22;56610;48.872;2.400;2022-07-01T04:53:19;16.70;99.90
69418;DHT22;56610;48.872;2.400;2022-07-01T04:55:45;16.70;99.90
69418;DHT22;56610;48.872;2.400;2022-07-01T04:58:12;16.80;99.90
69418;DHT22;56610;48.872;2.400;2022-07-01T05:00:37;16.80;99.90
69418;DHT22;56610;48.872;2.400;2022-07-01T05:03:03;16.70;99.90
69418;DHT22;56610;48.872;2.400;2022-07-01T05:05:28;16.70;99.90
69418;DHT22;56610;48.872;2.400;2022-07-01T05:07:54;16.70;99.90
69418;DHT22;56610;48.872;2.400;2022-07-01T05:10:19;16.70;99.90
69418;DHT22;56610;48.872;2.400;2022-07-01T05:12:45;16.70;99.90
69418;DHT22;56610;48.872;2.400;2022-07-01T05:15:10;16.70;99.90
69418;DHT22;56610;48.872;2.400;2022-07-01T05:17:36;16.60;99.90
69418;DHT22;56610;48.872;2.400;2022-07-01T05:20:20;16.70;99.90
69418;DHT22;56610;48.872;2.400;2022-07-01T05:23:04;16.70;99.90
69418;DHT22;56610;48.872;2.400;2022-07-01T05:25:29;16.60;99.90
69418;DHT22;56610;48.872;2.400;2022-07-01T05:27:55;16.70;99.90
69418;DHT22;56610;48.872;2.400;2022-07-01T05:30:21;16.80;99.90
69418;DHT22;56610;48.872;2.400;2022-07-01T05:32:46;16.90;99.90
69418;DHT22;56610;48.872;2.400;2022-07-01T05:35:12;16.80;99.90
69418;DHT22;56610;48.872;2.400;2022-07-01T05:37:38;16.70;99.90
69418;DHT22;56610;48.872;2.400;2022-07-01T05:40:04;16.80;99.90
69418;DHT22;56610;48.872;2.400;2022-07-01T05:42:30;16.90;99.90
69418;DHT22;56610;48.872;2.400;2022-07-01T05:44:56;16.90;99.90
69418;DHT22;56610;48.872;2.400;2022-07-01T05:47:21;16.80;99.90
69418;DHT22;56610;48.872;2.400;2022-07-01T05:49:47;16.80;99.90
69418;DHT22;56610;48.872;2.400;2022-07-01T05:52:12;16.80;99.90
69418;DHT22;56610;48.872;2.400;2022-07-01T05:54:38;16.80;99.90
69418;DHT22;56610;48.872;2.400;2022-07-01T05:57:03;16.80;99.90
69418;DHT22;56610;48.872;2.400;2022-07-01T05:59:29;16.80;99.90
69418;DHT22;56610;48.872;2.400;2022-07-01T06:01:54;16.80;99.90
69418;DHT22;56610;48.872;2.400;2022-07-01T06:04:20;16.80;99.90
69418;DHT22;56610;48.872;2.400;2022-07-01T06:06:45;16.90;99.90
69418;DHT22;56610;48.872;2.400;2022-07-01T06:09:11;16.90;99.90
69418;DHT22;56610;48.872;2.400;2022-07-01T06:11:36;16.90;99.90
69418;DHT22;56610;48.872;2.400;2022-07-01T06:14:02;16.90;99.90
69418;DHT22;56610;48.872;2.400;2022-07-01T06:19:13;17.10;99.90
69418;DHT22;56610;48.872;2.400;2022-07-01T06:21:39;17.20;99.90
69418;DHT22;56610;48.872;2.400;2022-07-01T06:24:04;17.30;99.90
69418;DHT22;56610;48.872;2.400;2022-07-01T06:26:30;17.40;99.90
69418;DHT22;56610;48.872;2.400;2022-07-01T06:28:55;17.30;99.90
69418;DHT22;56610;48.872;2.400;2022-07-01T06:31:21;17.30;99.90
69418;DHT22;56610;48.872;2.400;2022-07-01T06:33:48;17.20;99.90
69418;DHT22;56610;48.872;2.400;2022-07-01T06:36:14;17.10;99.90
69418;DHT22;56610;48.872;2.400;2022-07-01T06:38:39;17.10;99.90
69418;DHT22;56610;48.872;2.400;2022-07-01T06:41:05;17.00;99.90
69418;DHT22;56610;48.872;2.400;2022-07-01T06:43:49;17.00;99.90
69418;DHT22;56610;48.872;2.400;2022-07-01T06:46:15;16.90;99.90
69418;DHT22;56610;48.872;2.400;2022-07-01T06:48:40;16.80;99.90
69418;DHT22;56610;48.872;2.400;2022-07-01T06:51:06;16.80;99.90
69418;DHT22;56610;48.872;2.400;2022-07-01T06:53:31;16.80;99.90
69418;DHT22;56610;48.872;2.400;2022-07-01T06:55:57;16.90;99.90
69418;DHT22;56610;48.872;2.400;2022-07-01T06:58:23;17.00;99.90
69418;DHT22;56610;48.872;2.400;2022-07-01T07:00:48;17.10;99.90
69418;DHT22;56610;48.872;2.400;2022-07-01T07:03:14;17.20;99.90
69418;DHT22;56610;48.872;2.400;2022-07-01T07:05:39;17.30;99.90
69418;DHT22;56610;48.872;2.400;2022-07-01T07:08:05;17.40;99.90
69418;DHT22;56610;48.872;2.400;2022-07-01T07:10:30;17.30;99.90
69418;DHT22;56610;48.872;2.400;2022-07-01T07:12:56;17.40;99.90
69418;DHT22;56610;48.872;2.400;2022-07-01T07:15:21;17.50;99.90
69418;DHT22;56610;48.872;2.400;2022-07-01T07:17:47;17.60;99.90
69418;DHT22;56610;48.872;2.400;2022-07-01T07:20:12;17.50;99.90
69418;DHT22;56610;48.872;2.400;2022-07-01T07:22:38;17.70;99.90
69418;DHT22;56610;48.872;2.400;2022-07-01T07:25:03;17.70;99.90
69418;DHT22;56610;48.872;2.400;2022-07-01T07:27:29;17.80;99.90
69418;DHT22;56610;48.872;2.400;2022-07-01T07:29:54;17.80;99.90
69418;DHT22;56610;48.872;2.400;2022-07-01T07:32:20;17.80;99.90
69418;DHT22;56610;48.872;2.400;2022-07-01T07:34:45;17.90;99.90
69418;DHT22;56610;48.872;2.400;2022-07-01T07:37:11;17.80;99.90
69418;DHT22;56610;48.872;2.400;2022-07-01T07:39:36;18.00;99.90
69418;DHT22;56610;48.872;2.400;2022-07-01T07:42:02;18.00;99.90
69418;DHT22;56610;48.872;2.400;2022-07-01T07:44:28;18.20;99.90
69418;DHT22;56610;48.872;2.400;2022-07-01T07:46:54;18.20;99.90
69418;DHT22;56610;48.872;2.400;2022-07-01T07:49:19;18.20;99.90
69418;DHT22;56610;48.872;2.400;2022-07-01T07:51:45;18.20;99.90
69418;DHT22;56610;48.872;2.400;2022-07-01T07:54:10;18.30;99.90
69418;DHT22;56610;48.872;2.400;2022-07-01T07:56:36;18.50;99.70
69418;DHT22;56610;48.872;2.400;2022-07-01T07:59:01;18.50;99.30
69418;DHT22;56610;48.872;2.400;2022-07-01T08:01:27;18.60;98.60
69418;DHT22;56610;48.872;2.400;2022-07-01T08:03:52;18.60;98.10
69418;DHT22;56610;48.872;2.400;2022-07-01T08:06:18;18.60;99.00
69418;DHT22;56610;48.872;2.400;2022-07-01T08:08:43;18.70;97.90
69418;DHT22;56610;48.872;2.400;2022-07-01T08:11:09;18.80;97.40
69418;DHT22;56610;48.872;2.400;2022-07-01T08:13:34;18.90;97.10
69418;DHT22;56610;48.872;2.400;2022-07-01T08:16:00;18.80;98.20
69418;DHT22;56610;48.872;2.400;2022-07-01T08:18:26;18.80;97.90
69418;DHT22;56610;48.872;2.400;2022-07-01T08:20:51;18.60;96.20
69418;DHT22;56610;48.872;2.400;2022-07-01T08:23:18;18.60;97.60
69418;DHT22;56610;48.872;2.400;2022-07-01T08:25:44;18.60;97.50
69418;DHT22;56610;48.872;2.400;2022-07-01T08:28:10;18.50;98.00
69418;DHT22;56610;48.872;2.400;2022-07-01T08:30:35;18.60;98.00
69418;DHT22;56610;48.872;2.400;2022-07-01T08:33:01;18.60;97.00
69418;DHT22;56610;48.872;2.400;2022-07-01T08:35:26;18.60;97.50
69418;DHT22;56610;48.872;2.400;2022-07-01T08:37:52;18.60;96.80
69418;DHT22;56610;48.872;2.400;2022-07-01T08:40:18;18.60;96.70
69418;DHT22;56610;48.872;2.400;2022-07-01T08:42:43;18.60;97.10
69418;DHT22;56610;48.872;2.400;2022-07-01T08:45:09;18.70;96.80
69418;DHT22;56610;48.872;2.400;2022-07-01T08:47:34;18.80;96.70
69418;DHT22;56610;48.872;2.400;2022-07-01T08:50:13;18.80;96.60
69418;DHT22;56610;48.872;2.400;2022-07-01T08:52:39;18.90;96.40
69418;DHT22;56610;48.872;2.400;2022-07-01T08:55:04;19.00;96.00
69418;DHT22;56610;48.872;2.400;2022-07-01T08:57:31;19.10;96.40
69418;DHT22;56610;48.872;2.400;2022-07-01T09:00:01;19.20;95.80
69418;DHT22;56610;48.872;2.400;2022-07-01T09:02:26;19.30;95.50
69418;DHT22;56610;48.872;2.400;2022-07-01T09:05:05;19.30;95.80
69418;DHT22;56610;48.872;2.400;2022-07-01T09:07:31;19.30;95.50
69418;DHT22;56610;48.872;2.400;2022-07-01T09:10:04;19.30;95.30
69418;DHT22;56610;48.872;2.400;2022-07-01T09:12:42;19.60;95.10
69418;DHT22;56610;48.872;2.400;2022-07-01T09:17:56;19.80;94.50
69418;DHT22;56610;48.872;2.400;2022-07-01T09:20:28;19.70;94.30
69418;DHT22;56610;48.872;2.400;2022-07-01T09:23:13;19.60;94.20
69418;DHT22;56610;48.872;2.400;2022-07-01T09:25:40;19.70;94.40
69418;DHT22;56610;48.872;2.400;2022-07-01T09:30:43;19.60;94.10
69418;DHT22;56610;48.872;2.400;2022-07-01T09:33:16;19.70;94.50
69418;DHT22;56610;48.872;2.400;2022-07-01T09:35:42;19.70;94.70
69418;DHT22;56610;48.872;2.400;2022-07-01T09:38:10;19.70;94.50
69418;DHT22;56610;48.872;2.400;2022-07-01T09:43:15;19.90;95.10
69418;DHT22;56610;48.872;2.400;2022-07-01T09:48:27;19.90;94.60
69418;DHT22;56610;48.872;2.400;2022-07-01T09:50:52;20.00;94.00
69418;DHT22;56610;48.872;2.400;2022-07-01T09:53:18;20.10;94.20
69418;DHT22;56610;48.872;2.400;2022-07-01T09:55:44;20.10;94.90
69418;DHT22;56610;48.872;2.400;2022-07-01T09:58:09;20.10;94.40
69418;DHT22;56610;48.872;2.400;2022-07-01T10:00:36;20.10;94.10
69418;DHT22;56610;48.872;2.400;2022-07-01T10:03:02;20.20;94.70
69418;DHT22;56610;48.872;2.400;2022-07-01T10:05:28;20.20;94.20
69418;DHT22;56610;48.872;2.400;2022-07-01T10:07:57;20.40;93.70
69418;DHT22;56610;48.872;2.400;2022-07-01T10:13:30;20.50;93.00
69418;DHT22;56610;48.872;2.400;2022-07-01T10:15:56;20.70;93.20
69418;DHT22;56610;48.872;2.400;2022-07-01T10:18:23;20.80;93.10
69418;DHT22;56610;48.872;2.400;2022-07-01T10:20:49;20.70;93.70
69418;DHT22;56610;48.872;2.400;2022-07-01T10:23:15;20.70;92.80
69418;DHT22;56610;48.872;2.400;2022-07-01T10:25:42;20.70;92.80
69418;DHT22;56610;48.872;2.400;2022-07-01T10:28:14;20.80;92.80
69418;DHT22;56610;48.872;2.400;2022-07-01T10:30:53;20.70;93.00
69418;DHT22;56610;48.872;2.400;2022-07-01T10:36:13;20.70;93.00
69418;DHT22;56610;48.872;2.400;2022-07-01T10:43:57;21.00;92.80
69418;DHT22;56610;48.872;2.400;2022-07-01T10:46:39;21.10;92.00
69418;DHT22;56610;48.872;2.400;2022-07-01T10:49:11;21.10;91.90
69418;DHT22;56610;48.872;2.400;2022-07-01T10:54:13;21.50;92.30
69418;DHT22;56610;48.872;2.400;2022-07-01T10:56:39;21.60;92.30
69418;DHT22;56610;48.872;2.400;2022-07-01T10:59:05;21.50;92.00
69418;DHT22;56610;48.872;2.400;2022-07-01T11:01:31;21.60;92.10
69418;DHT22;56610;48.872;2.400;2022-07-01T11:03:56;21.30;92.10
69418;DHT22;56610;48.872;2.400;2022-07-01T11:06:21;21.20;92.20
69418;DHT22;56610;48.872;2.400;2022-07-01T11:08:50;21.40;92.50
69418;DHT22;56610;48.872;2.400;2022-07-01T11:11:16;21.60;92.40
69418;DHT22;56610;48.872;2.400;2022-07-01T11:13:41;21.80;91.50
69418;DHT22;56610;48.872;2.400;2022-07-01T11:16:08;22.20;90.90
69418;DHT22;56610;48.872;2.400;2022-07-01T11:18:33;22.30;90.50
69418;DHT22;56610;48.872;2.400;2022-07-01T11:21:19;22.10;90.30
69418;DHT22;56610;48.872;2.400;2022-07-01T11:23:52;21.90;90.90
69418;DHT22;56610;48.872;2.400;2022-07-01T11:26:24;21.80;91.20
69418;DHT22;56610;48.872;2.400;2022-07-01T11:28:49;21.70;91.00
69418;DHT22;56610;48.872;2.400;2022-07-01T11:31:15;21.70;91.00
69418;DHT22;56610;48.872;2.400;2022-07-01T11:33:40;21.60;91.30
69418;DHT22;56610;48.872;2.400;2022-07-01T11:36:06;21.80;91.00
69418;DHT22;56610;48.872;2.400;2022-07-01T11:38:50;22.20;90.40
69418;DHT22;56610;48.872;2.400;2022-07-01T11:41:34;22.60;89.70
69418;DHT22;56610;48.872;2.400;2022-07-01T11:44:00;23.10;89.90
69418;DHT22;56610;48.872;2.400;2022-07-01T11:46:30;23.50;88.50
69418;DHT22;56610;48.872;2.400;2022-07-01T11:48:55;23.90;87.20
69418;DHT22;56610;48.872;2.400;2022-07-01T11:51:22;23.90;88.50
69418;DHT22;56610;48.872;2.400;2022-07-01T11:53:49;24.20;86.30
69418;DHT22;56610;48.872;2.400;2022-07-01T11:56:14;24.20;86.50
69418;DHT22;56610;48.872;2.400;2022-07-01T11:58:41;23.90;85.90
69418;DHT22;56610;48.872;2.400;2022-07-01T12:01:31;23.90;88.20
69418;DHT22;56610;48.872;2.400;2022-07-01T12:04:00;23.60;87.00
69418;DHT22;56610;48.872;2.400;2022-07-01T12:06:27;23.60;86.80
69418;DHT22;56610;48.872;2.400;2022-07-01T12:08:53;23.30;86.20
69418;DHT22;56610;48.872;2.400;2022-07-01T12:11:20;23.10;89.00
69418;DHT22;56610;48.872;2.400;2022-07-01T12:13:47;23.00;88.20
69418;DHT22;56610;48.872;2.400;2022-07-01T12:16:13;22.80;89.20
69418;DHT22;56610;48.872;2.400;2022-07-01T12:18:38;22.80;88.60
69418;DHT22;56610;48.872;2.400;2022-07-01T12:21:04;22.70;88.20
69418;DHT22;56610;48.872;2.400;2022-07-01T12:23:29;22.70;89.10
69418;DHT22;56610;48.872;2.400;2022-07-01T12:28:43;22.90;86.60
69418;DHT22;56610;48.872;2.400;2022-07-01T12:31:09;23.00;85.90
69418;DHT22;56610;48.872;2.400;2022-07-01T12:33:36;23.00;85.40
69418;DHT22;56610;48.872;2.400;2022-07-01T12:36:02;23.10;84.80
69418;DHT22;56610;48.872;2.400;2022-07-01T12:38:28;23.00;85.70
69418;DHT22;56610;48.872;2.400;2022-07-01T12:40:54;22.90;85.10
69418;DHT22;56610;48.872;2.400;2022-07-01T12:43:26;23.00;86.00
69418;DHT22;56610;48.872;2.400;2022-07-01T12:45:55;23.30;86.90
69418;DHT22;56610;48.872;2.400;2022-07-01T12:48:21;23.60;85.90
69418;DHT22;56610;48.872;2.400;2022-07-01T12:50:46;23.60;85.70
69418;DHT22;56610;48.872;2.400;2022-07-01T12:53:17;23.70;84.60
69418;DHT22;56610;48.872;2.400;2022-07-01T12:55:44;23.80;83.80
69418;DHT22;56610;48.872;2.400;2022-07-01T12:58:13;24.00;85.70
69418;DHT22;56610;48.872;2.400;2022-07-01T13:00:40;24.30;83.20
69418;DHT22;56610;48.872;2.400;2022-07-01T13:03:06;24.40;85.10
69418;DHT22;56610;48.872;2.400;2022-07-01T13:05:33;24.70;82.00
69418;DHT22;56610;48.872;2.400;2022-07-01T13:07:59;25.20;80.30
69418;DHT22;56610;48.872;2.400;2022-07-01T13:10:25;25.60;78.30
69418;DHT22;56610;48.872;2.400;2022-07-01T13:12:51;26.00;76.00
69418;DHT22;56610;48.872;2.400;2022-07-01T13:15:17;26.20;74.50
69418;DHT22;56610;48.872;2.400;2022-07-01T13:17:43;26.30;77.10
69418;DHT22;56610;48.872;2.400;2022-07-01T13:20:09;26.40;75.60
69418;DHT22;56610;48.872;2.400;2022-07-01T13:22:35;26.60;75.70
69418;DHT22;56610;48.872;2.400;2022-07-01T13:25:01;26.50;75.50
69418;DHT22;56610;48.872;2.400;2022-07-01T13:27:27;26.70;74.80
69418;DHT22;56610;48.872;2.400;2022-07-01T13:29:52;26.40;75.40
69418;DHT22;56610;48.872;2.400;2022-07-01T13:32:18;26.00;76.10
69418;DHT22;56610;48.872;2.400;2022-07-01T13:34:44;25.80;76.20
69418;DHT22;56610;48.872;2.400;2022-07-01T13:37:09;25.50;76.80
69418;DHT22;56610;48.872;2.400;2022-07-01T13:39:35;25.10;76.60
69418;DHT22;56610;48.872;2.400;2022-07-01T13:42:01;24.80;77.90
69418;DHT22;56610;48.872;2.400;2022-07-01T13:47:12;24.80;78.30
69418;DHT22;56610;48.872;2.400;2022-07-01T13:49:40;24.60;78.40
69418;DHT22;56610;48.872;2.400;2022-07-01T13:52:09;24.50;78.80
69418;DHT22;56610;48.872;2.400;2022-07-01T13:54:35;24.30;79.10
69418;DHT22;56610;48.872;2.400;2022-07-01T13:57:01;24.10;80.50
69418;DHT22;56610;48.872;2.400;2022-07-01T13:59:27;23.80;80.90
69418;DHT22;56610;48.872;2.400;2022-07-01T14:01:52;23.50;81.30
69418;DHT22;56610;48.872;2.400;2022-07-01T14:04:18;23.20;81.90
69418;DHT22;56610;48.872;2.400;2022-07-01T14:06:43;23.20;82.90
69418;DHT22;56610;48.872;2.400;2022-07-01T14:09:09;23.10;82.30
69418;DHT22;56610;48.872;2.400;2022-07-01T14:11:34;23.10;82.80
69418;DHT22;56610;48.872;2.400;2022-07-01T14:14:00;23.20;82.90
69418;DHT22;56610;48.872;2.400;2022-07-01T14:16:25;23.20;82.60
69418;DHT22;56610;48.872;2.400;2022-07-01T14:18:55;23.40;83.80
69418;DHT22;56610;48.872;2.400;2022-07-01T14:21:20;23.50;82.40
69418;DHT22;56610;48.872;2.400;2022-07-01T14:23:46;23.70;83.50
69418;DHT22;56610;48.872;2.400;2022-07-01T14:26:12;23.90;82.00
69418;DHT22;56610;48.872;2.400;2022-07-01T14:28:37;23.90;81.50
69418;DHT22;56610;48.872;2.400;2022-07-01T14:31:03;24.10;80.90
69418;DHT22;56610;48.872;2.400;2022-07-01T14:36:14;24.20;79.50
69418;DHT22;56610;48.872;2.400;2022-07-01T14:38:40;24.20;80.00
69418;DHT22;56610;48.872;2.400;2022-07-01T14:41:05;24.20;80.80
69418;DHT22;56610;48.872;2.400;2022-07-01T14:43:31;24.10;79.70
69418;DHT22;56610;48.872;2.400;2022-07-01T14:45:57;24.20;80.20
69418;DHT22;56610;48.872;2.400;2022-07-01T14:48:23;24.10;79.70
69418;DHT22;56610;48.872;2.400;2022-07-01T14:50:48;24.10;79.90
69418;DHT22;56610;48.872;2.400;2022-07-01T14:53:14;24.20;80.30
69418;DHT22;56610;48.872;2.400;2022-07-01T14:55:39;24.10;79.60
69418;DHT22;56610;48.872;2.400;2022-07-01T14:58:05;24.10;79.00
69418;DHT22;56610;48.872;2.400;2022-07-01T15:00:31;24.10;79.90
69418;DHT22;56610;48.872;2.400;2022-07-01T15:03:02;24.10;78.60
69418;DHT22;56610;48.872;2.400;2022-07-01T15:05:27;24.40;80.20
69418;DHT22;56610;48.872;2.400;2022-07-01T15:07:53;24.70;78.60
69418;DHT22;56610;48.872;2.400;2022-07-01T15:10:18;24.70;78.50
69418;DHT22;56610;48.872;2.400;2022-07-01T15:12:44;24.90;77.90
69418;DHT22;56610;48.872;2.400;2022-07-01T15:15:09;25.10;78.10
69418;DHT22;56610;48.872;2.400;2022-07-01T15:17:40;25.40;78.90
69418;DHT22;56610;48.872;2.400;2022-07-01T15:20:07;25.20;77.20
69418;DHT22;56610;48.872;2.400;2022-07-01T15:22:32;25.20;78.10
69418;DHT22;56610;48.872;2.400;2022-07-01T15:24:57;25.30;76.60
69418;DHT22;56610;48.872;2.400;2022-07-01T15:27:23;25.50;76.40
69418;DHT22;56610;48.872;2.400;2022-07-01T15:29:48;25.40;76.90
69418;DHT22;56610;48.872;2.400;2022-07-01T15:32:14;25.20;77.70
69418;DHT22;56610;48.872;2.400;2022-07-01T15:34:39;25.20;76.60
69418;DHT22;56610;48.872;2.400;2022-07-01T15:37:05;25.10;76.60
69418;DHT22;56610;48.872;2.400;2022-07-01T15:39:30;25.10;75.40
69418;DHT22;56610;48.872;2.400;2022-07-01T15:41:56;25.20;74.60
69418;DHT22;56610;48.872;2.400;2022-07-01T15:44:26;25.20;74.40
69418;DHT22;56610;48.872;2.400;2022-07-01T15:46:51;25.10;74.90
69418;DHT22;56610;48.872;2.400;2022-07-01T15:49:17;25.20;74.20
69418;DHT22;56610;48.872;2.400;2022-07-01T15:51:43;25.20;75.20
69418;DHT22;56610;48.872;2.400;2022-07-01T15:54:09;25.40;75.50
69418;DHT22;56610;48.872;2.400;2022-07-01T15:56:35;25.60;73.30
69418;DHT22;56610;48.872;2.400;2022-07-01T15:59:00;25.80;75.10
69418;DHT22;56610;48.872;2.400;2022-07-01T16:01:26;25.80;74.90
69418;DHT22;56610;48.872;2.400;2022-07-01T16:03:52;26.00;75.90